Observations de surface / France / LFRK

Québec | Canada | États-Unis | France | UK | Europe | Ailleurs

Affichage: Infos & localisation pour LFRK | Aide pour décoder les METARs

LFRK CAEN/CARPIQUET(AUT) -- FR
Raw surface observations for station LFRK
LFRK 211700Z AUTO 10003KT 5000 BR NSC 00/M02 Q1025 NOSIG=
LFRK 211630Z AUTO 08002KT 5000 BR NSC 01/M02 Q1025 NOSIG=
LFRK 211600Z AUTO 08001KT 6000 NSC 02/M02 Q1025 NOSIG=
LFRK 211530Z AUTO VRB02KT 5000 BR NSC 02/M02 Q1025 NOSIG=
LFRK 211500Z AUTO 12005KT 5000 BR NSC 02/M02 Q1025 NOSIG=
LFRK 211430Z AUTO 13005KT 6000 NSC 02/M03 Q1025 NOSIG=
LFRK 211400Z AUTO 15004KT 5000 HZ NSC 02/M03 Q1025 NOSIG=
LFRK 211330Z AUTO 13004KT 5000 BR NSC 01/M04 Q1025 NOSIG=
LFRK 211300Z AUTO 15004KT 120V180 5000 BR NSC 01/M04 Q1025 NOSIG=
LFRK 211230Z AUTO 15005KT 4300 BR NSC M00/M04 Q1026 BECMG 7000 NSW=
LFRK 211200Z AUTO 16005KT 4200 BR NSC M01/M04 Q1026 BECMG 7000 NSW=
LFRK 211130Z AUTO 14005KT 3500 BR NSC M02/M04 Q1026 BECMG 7000 NSW=
LFRK 211100Z AUTO 13004KT 3600 BR NSC M03/M05 Q1026 BECMG 7000 NSW=
LFRK 211030Z AUTO 13005KT 3400 BR NSC M04/M06 Q1027 BECMG 7000 NSW=
LFRK 211000Z AUTO 13003KT 3500 BR NSC M04/M06 Q1027 BECMG 7000 NSW=
LFRK 210930Z AUTO 15003KT 3800 BR NSC M05/M06 Q1026 BECMG 7000 NSW=
LFRK 210900Z AUTO 15003KT 4100 BR NSC M06/M07 Q1027 BECMG 7000 NSW=
LFRK 210830Z AUTO 12001KT 4100 BR NSC M08/M09 Q1027 BECMG 7000 NSW=
LFRK 210800Z AUTO 13001KT 3900 BR NSC M08/M09 Q1026 BECMG 7000 NSW=
LFRK 210730Z AUTO 17002KT 5000 BR NSC M08/M09 Q1026 NOSIG=
LFRK 210700Z AUTO 14002KT 5000 BR NSC M07/M08 Q1027 NOSIG=
LFRK 210630Z AUTO 19003KT 5000 BR NSC M07/M08 Q1027 NOSIG=
LFRK 210600Z AUTO 21003KT 5000 BR NSC M06/M07 Q1027 NOSIG=
LFRK 210530Z AUTO 22002KT 4900 BR NSC M07/M08 Q1027 NOSIG=
LFRK 210500Z AUTO 16003KT 4700 BR NSC M07/M08 Q1027=
LFRK 210430Z AUTO 14003KT 5000 BR NSC M06/M07 Q1027=
LFRK 210400Z AUTO 14003KT 5000 BR NSC M06/M07 Q1027=
LFRK 210330Z AUTO 00000KT 5000 BR NSC M07/M08 Q1027=
LFRK 210300Z AUTO 12001KT 5000 BR NSC M06/M07 Q1028=
LFRK 210230Z AUTO 09002KT 5000 BR NSC M06/M06 Q1028=
LFRK 210200Z AUTO 00000KT 5000 BR NSC M06/M07 Q1028=
LFRK 210130Z AUTO 00000KT 5000 BR NSC M06/M06 Q1028=
LFRK 210100Z AUTO 13002KT 5000 BR NSC M07/M08 Q1028=
LFRK 210030Z AUTO 12003KT 5000 BR NSC M06/M07 Q1028=
LFRK 210000Z AUTO 11003KT 6000 NSC M06/M07 Q1028=
LFRK 202330Z AUTO 11003KT 7000 NSC M04/M06 Q1028=
LFRK 202300Z AUTO 00000KT 6000 NSC M05/M06 Q1029=
LFRK 202230Z AUTO 08001KT 7000 NSC M04/M06 Q1029=
LFRK 202200Z AUTO 00000KT 6000 NSC M05/M06 Q1029=
LFRK 202130Z AUTO 10001KT 7000 NSC M04/M06 Q1029=
LFRK 202100Z AUTO 11005KT 7000 FEW012 M04/M06 Q1029 NOSIG=
LFRK 202030Z AUTO 12003KT 7000 NSC M03/M05 Q1029 NOSIG=
LFRK 202000Z AUTO 12004KT 7000 NSC M04/M05 Q1029 NOSIG=
LFRK 201930Z AUTO 12005KT 8000 NSC M03/M06 Q1029 NOSIG=
LFRK 201900Z AUTO 12007KT 9000 NSC M01/M05 Q1029 NOSIG=
LFRK 201830Z AUTO 10008KT 9000 NSC M01/M05 Q1028 NOSIG=
LFRK 201800Z AUTO 09004KT 9000 NSC M01/M04 Q1029 NOSIG=
LFRK 201730Z AUTO 09004KT CAVOK M01/M04 Q1029 NOSIG=
LFRK 201700Z AUTO 07003KT CAVOK M00/M05 Q1029 NOSIG=